Accueil
METAR-TAF:

METAR-TAF

Aéroports :

Monte Argentario, Italie

latitude: 42-23N, longitude: 011-10E, altitude: 630 m

Observation

Le bulletin a été fait il y a 6 heures et 43 minutes, à 17:55 UTC
Vent 14 kt de ouest/sud-ouest
Température 8°C
Humidité 71%
Pression 1009 hPa
Visibilité 10 km ou plus
pas de nuages en-dessous de 1500 mètres et pas de cumulonimbus.

METAR: LIQO 271755Z 24014KT CAVOK 08/03 Q1009 RMK BKN SCT070 SCT200 VAL NIL NC VIS MIN 9999

Heure: 01:38 (00:38 UTC)


TAF: absent

Observations et prévisions météorologiques de plus de 4000 aéroports (messages METAR et TAF).

Les stations disponibles sont représentées par des disques jaunes et rouges sur la carte.

Passer la souris dessus pour voir le nom de la station.

Cliquer dessus pour voir les observations et prévisions météorologiques.

Pour changer de carte: cliquez sur les boutons verts avec une croix noire pour zoomer, sur le bouton vert avec un tiret pour effectuer un zoom arrière, ou sur les flèches vertes pour les cartes adjacentes.


METAR-TAF: